createdAt,value
2022-10-06T00:02:24.087Z,6.57
2022-10-06T00:05:09.164Z,9.25
2022-10-06T00:07:54.884Z,7.55
2022-10-06T00:10:40.095Z,8.38
2022-10-06T00:13:26.361Z,9.40
2022-10-06T00:16:17.028Z,7.85
2022-10-06T00:19:01.699Z,7.75
2022-10-06T00:21:46.660Z,8.15
2022-10-06T00:24:31.712Z,9.25
2022-10-06T00:27:16.421Z,7.88
2022-10-06T00:30:05.080Z,8.23
2022-10-06T00:33:01.161Z,7.82
2022-10-06T00:35:46.947Z,8.98
2022-10-06T00:38:32.439Z,10.57
2022-10-06T00:41:18.024Z,9.27
2022-10-06T00:44:02.968Z,12.75
2022-10-06T00:46:51.685Z,8.07
2022-10-06T00:49:37.543Z,7.78
2022-10-06T00:52:27.413Z,7.47
2022-10-06T00:55:12.515Z,8.43
2022-10-06T00:57:58.793Z,9.27
2022-10-06T01:00:45.412Z,8.73
2022-10-06T01:03:36.599Z,7.40
2022-10-06T01:06:21.516Z,10.32
2022-10-06T01:09:06.426Z,9.60
2022-10-06T01:11:55.367Z,7.80
2022-10-06T01:14:40.943Z,11.10
2022-10-06T01:17:50.829Z,8.90
2022-10-06T01:20:37.825Z,7.75
2022-10-06T01:23:22.926Z,8.00
2022-10-06T01:26:10.867Z,9.90
2022-10-06T01:28:56.876Z,9.23
2022-10-06T01:31:43.253Z,7.07
2022-10-06T01:34:28.361Z,8.80
2022-10-06T01:37:13.916Z,6.88
2022-10-06T01:39:59.455Z,7.50
2022-10-06T01:42:44.474Z,8.82
2022-10-06T01:45:29.411Z,7.15
2022-10-06T01:48:14.455Z,8.60
2022-10-06T01:50:59.707Z,10.73
2022-10-06T01:53:44.711Z,8.10
2022-10-06T01:56:29.852Z,8.20
2022-10-06T01:59:15.743Z,8.63
2022-10-06T02:02:01.432Z,10.13
2022-10-06T02:04:47.021Z,8.00
2022-10-06T02:07:32.254Z,9.90
2022-10-06T02:10:17.217Z,11.82
2022-10-06T02:13:04.231Z,7.32
2022-10-06T02:15:49.272Z,9.98
2022-10-06T02:18:35.057Z,7.25
2022-10-06T02:21:22.675Z,10.30
2022-10-06T02:24:07.553Z,9.63
2022-10-06T02:26:52.744Z,9.23
2022-10-06T02:29:38.232Z,8.70
2022-10-06T02:32:23.528Z,7.78
2022-10-06T02:35:10.690Z,8.77
2022-10-06T02:37:55.436Z,10.43
2022-10-06T02:40:41.001Z,8.95
2022-10-06T02:43:29.378Z,13.43
2022-10-06T02:46:15.092Z,9.13
2022-10-06T02:49:06.432Z,11.30
2022-10-06T02:51:52.751Z,10.88
2022-10-06T02:54:37.695Z,10.38
2022-10-06T02:57:22.664Z,8.73
2022-10-06T03:00:08.433Z,9.27
2022-10-06T03:02:53.720Z,9.40
2022-10-06T03:05:38.997Z,9.63
2022-10-06T03:08:23.988Z,10.40
2022-10-06T03:11:11.150Z,8.65
2022-10-06T03:13:56.835Z,10.63
2022-10-06T03:16:42.953Z,9.20
2022-10-06T03:19:33.331Z,10.38
2022-10-06T03:22:18.403Z,10.23
2022-10-06T03:25:09.452Z,9.93
2022-10-06T03:27:54.335Z,12.90
2022-10-06T03:30:39.388Z,10.73
2022-10-06T03:33:24.287Z,11.13
2022-10-06T03:36:18.365Z,11.00
2022-10-06T03:39:05.109Z,13.20
2022-10-06T03:41:51.871Z,12.77
2022-10-06T03:44:36.982Z,14.63
2022-10-06T03:47:22.830Z,12.52
2022-10-06T03:50:08.796Z,13.70
2022-10-06T03:52:54.090Z,11.98
2022-10-06T03:55:39.382Z,14.15
2022-10-06T03:58:24.293Z,13.15
2022-10-06T04:01:26.359Z,14.00
2022-10-06T04:04:12.315Z,15.70
2022-10-06T04:06:58.138Z,13.68
2022-10-06T04:09:43.394Z,12.07
2022-10-06T04:12:29.747Z,15.30
2022-10-06T04:15:14.680Z,13.57
2022-10-06T04:17:59.588Z,14.25
2022-10-06T04:20:44.436Z,18.95
2022-10-06T04:23:29.310Z,14.88
2022-10-06T04:26:18.387Z,16.50
2022-10-06T04:29:07.516Z,22.35
2022-10-06T04:31:52.820Z,17.90
2022-10-06T04:34:49.423Z,19.30
2022-10-06T04:37:35.035Z,23.50
2022-10-06T04:40:20.422Z,17.67
2022-10-06T04:43:05.389Z,23.95
2022-10-06T04:45:58.254Z,22.75
2022-10-06T04:48:43.511Z,23.80
2022-10-06T04:51:29.182Z,16.65
2022-10-06T04:54:16.569Z,15.68
2022-10-06T04:57:01.905Z,16.65
2022-10-06T05:00:12.454Z,16.27
2022-10-06T05:03:00.645Z,14.95
2022-10-06T05:05:45.696Z,15.57
2022-10-06T05:08:32.825Z,12.75
2022-10-06T05:11:20.323Z,15.93
2022-10-06T05:14:08.849Z,13.90
2022-10-06T05:16:58.474Z,12.90
2022-10-06T05:19:43.520Z,10.98
2022-10-06T05:22:29.784Z,11.48
2022-10-06T05:25:16.454Z,14.63
2022-10-06T05:28:01.883Z,11.75
2022-10-06T05:31:04.110Z,11.07
2022-10-06T05:33:49.926Z,10.65
2022-10-06T05:36:57.166Z,11.68
2022-10-06T05:39:43.430Z,13.88
2022-10-06T05:42:37.432Z,10.18
2022-10-06T05:45:22.506Z,9.90
2022-10-06T05:48:08.495Z,11.35
2022-10-06T05:51:06.609Z,12.38
2022-10-06T05:53:54.111Z,12.70
2022-10-06T05:56:39.123Z,11.05
2022-10-06T05:59:24.767Z,10.50
2022-10-06T06:02:14.582Z,14.02
2022-10-06T06:05:01.705Z,6.60
2022-10-06T06:07:46.677Z,8.05
2022-10-06T06:10:32.237Z,9.60
2022-10-06T06:13:22.004Z,9.52
2022-10-06T06:16:17.960Z,9.48
2022-10-06T06:19:07.190Z,10.70
2022-10-06T06:21:54.029Z,7.40
2022-10-06T06:24:39.027Z,9.98
2022-10-06T06:27:27.521Z,7.65
2022-10-06T06:30:15.578Z,14.15
2022-10-06T06:33:01.196Z,8.15
2022-10-06T06:35:46.575Z,7.35
2022-10-06T06:38:32.160Z,7.80
2022-10-06T06:41:26.834Z,7.93
2022-10-06T06:44:19.716Z,7.60
2022-10-06T06:47:11.162Z,7.60
2022-10-06T06:49:58.148Z,6.35
2022-10-06T06:52:44.654Z,8.60
2022-10-06T06:55:33.077Z,9.88
2022-10-06T06:58:20.296Z,8.20
2022-10-06T07:01:13.155Z,7.25
2022-10-06T07:03:59.406Z,9.10
2022-10-06T07:06:58.044Z,6.90
2022-10-06T07:09:47.870Z,8.85
2022-10-06T07:12:34.738Z,7.38
2022-10-06T07:15:40.915Z,6.80
2022-10-06T07:18:52.575Z,9.77
2022-10-06T07:21:58.476Z,7.18
2022-10-06T07:25:02.551Z,6.22
2022-10-06T07:27:50.459Z,7.05
2022-10-06T07:30:40.905Z,6.28
2022-10-06T07:33:38.123Z,6.65
2022-10-06T07:36:24.204Z,7.75
2022-10-06T07:39:09.841Z,7.90
2022-10-06T07:41:56.425Z,6.55
2022-10-06T07:45:06.274Z,6.68
2022-10-06T07:47:58.393Z,8.38
2022-10-06T07:50:45.426Z,6.10
2022-10-06T07:53:30.512Z,8.32
2022-10-06T07:56:23.306Z,7.65
2022-10-06T07:59:12.308Z,5.32
2022-10-06T08:01:57.265Z,5.55
2022-10-06T08:04:42.092Z,7.13
2022-10-06T08:07:29.435Z,6.95
2022-10-06T08:10:14.924Z,7.15
2022-10-06T08:13:06.139Z,9.32
2022-10-06T08:15:51.336Z,8.98
2022-10-06T08:18:46.805Z,6.93
2022-10-06T08:21:37.040Z,6.25
2022-10-06T08:24:22.008Z,8.38
2022-10-06T08:27:09.209Z,6.75
2022-10-06T08:29:54.587Z,6.78
2022-10-06T08:37:20.789Z,7.25
2022-10-06T08:40:07.862Z,6.72
2022-10-06T08:42:58.538Z,6.78
2022-10-06T08:45:46.404Z,9.70
2022-10-06T08:48:40.396Z,6.85
2022-10-06T08:51:35.806Z,8.23
2022-10-06T08:54:44.676Z,7.15
2022-10-06T08:57:42.033Z,8.15
2022-10-06T09:00:34.364Z,5.80
2022-10-06T09:03:23.328Z,8.35
2022-10-06T09:06:51.845Z,5.95
2022-10-06T09:09:43.507Z,8.15
2022-10-06T09:12:47.466Z,7.38
2022-10-06T09:15:46.332Z,6.32
2022-10-06T09:19:06.884Z,5.63
2022-10-06T09:21:53.262Z,7.35
2022-10-06T09:24:47.005Z,5.50
2022-10-06T09:27:37.147Z,10.30
2022-10-06T09:30:23.531Z,7.20
2022-10-06T09:33:43.629Z,8.23
2022-10-06T09:36:29.497Z,7.28
2022-10-06T09:39:25.733Z,6.47
2022-10-06T09:42:29.053Z,8.15
2022-10-06T09:45:17.184Z,5.82
2022-10-06T09:48:27.019Z,5.95
2022-10-06T09:51:18.818Z,4.90
2022-10-06T09:59:04.239Z,6.45
2022-10-06T10:02:09.363Z,6.93
2022-10-06T10:08:50.833Z,5.57
2022-10-06T10:11:54.966Z,8.30
2022-10-06T10:14:39.797Z,7.57
2022-10-06T10:18:00.117Z,7.13
2022-10-06T10:21:01.178Z,8.52
2022-10-06T10:23:58.582Z,5.13
2022-10-06T10:26:59.530Z,5.45
2022-10-06T10:30:12.243Z,5.35
2022-10-06T10:33:11.949Z,6.70
2022-10-06T10:39:10.700Z,7.90
2022-10-06T10:42:05.750Z,5.10
2022-10-06T10:45:03.928Z,8.30
2022-10-06T10:47:48.874Z,9.10
2022-10-06T10:50:38.825Z,7.10
2022-10-06T10:53:48.911Z,7.90
2022-10-06T10:56:34.775Z,7.13
2022-10-06T10:59:38.742Z,7.13
2022-10-06T11:02:24.385Z,6.68
2022-10-06T11:05:16.438Z,6.55
2022-10-06T11:08:33.260Z,5.05
2022-10-06T11:11:39.423Z,8.57
2022-10-06T11:14:46.772Z,6.03
2022-10-06T11:17:46.533Z,7.85
2022-10-06T11:20:39.275Z,6.45
2022-10-06T11:23:40.053Z,6.90
2022-10-06T11:26:50.203Z,5.18
2022-10-06T11:30:06.903Z,6.30
2022-10-06T11:33:14.684Z,5.82
2022-10-06T11:36:06.064Z,6.47
2022-10-06T11:39:01.970Z,5.47
2022-10-06T11:41:59.966Z,4.78
2022-10-06T11:44:48.720Z,6.50
2022-10-06T11:47:59.906Z,6.80
2022-10-06T11:50:48.862Z,6.22
2022-10-06T11:53:38.168Z,6.53
2022-10-06T11:56:36.139Z,5.90
2022-10-06T11:59:26.407Z,5.90
2022-10-06T12:02:40.492Z,6.40
2022-10-06T12:08:41.540Z,6.72
2022-10-06T12:11:43.190Z,9.02
2022-10-06T12:17:54.701Z,6.65
2022-10-06T12:21:05.990Z,6.10
2022-10-06T12:24:22.313Z,7.53
2022-10-06T12:27:16.186Z,7.00
2022-10-06T12:30:22.875Z,7.63
2022-10-06T12:33:18.971Z,6.45
2022-10-06T12:36:23.477Z,6.15
2022-10-06T12:39:24.870Z,7.18
2022-10-06T12:42:24.444Z,8.38
2022-10-06T12:45:16.826Z,4.78
2022-10-06T12:48:06.127Z,6.88
2022-10-06T12:51:00.812Z,6.13
2022-10-06T12:53:56.017Z,9.25
2022-10-06T12:56:43.665Z,6.80
2022-10-06T12:59:34.070Z,7.07
2022-10-06T13:02:26.527Z,7.13
2022-10-06T13:05:12.349Z,6.22
2022-10-06T13:08:03.219Z,5.75
2022-10-06T13:10:48.430Z,6.82
2022-10-06T13:13:40.528Z,5.78
2022-10-06T13:16:35.872Z,8.40
2022-10-06T13:19:30.621Z,6.03
2022-10-06T13:22:18.203Z,7.82
2022-10-06T13:25:03.578Z,6.53
2022-10-06T13:27:51.207Z,6.20
2022-10-06T13:30:38.708Z,6.95
2022-10-06T13:33:27.765Z,8.25
2022-10-06T13:36:12.962Z,6.75
2022-10-06T13:39:00.570Z,6.38
2022-10-06T13:42:00.920Z,7.53
2022-10-06T13:44:55.933Z,9.25
2022-10-06T13:47:41.296Z,8.00
2022-10-06T13:50:29.295Z,6.97
2022-10-06T13:53:30.505Z,8.45
2022-10-06T13:56:35.051Z,7.38
2022-10-06T13:59:31.144Z,5.72
2022-10-06T14:02:16.087Z,7.43
2022-10-06T14:05:35.994Z,6.90
2022-10-06T14:08:24.543Z,7.15
2022-10-06T14:11:10.342Z,6.47
2022-10-06T14:14:06.291Z,7.18
2022-10-06T14:16:54.722Z,6.65
2022-10-06T14:19:40.627Z,9.52
2022-10-06T14:22:37.635Z,6.32
2022-10-06T14:25:22.586Z,7.68
2022-10-06T14:28:07.500Z,7.10
2022-10-06T14:30:53.236Z,8.75
2022-10-06T14:33:38.674Z,7.53
2022-10-06T14:36:32.893Z,6.78
2022-10-06T14:39:18.837Z,7.32
2022-10-06T14:42:03.832Z,8.85
2022-10-06T14:44:51.634Z,10.00
2022-10-06T14:47:36.553Z,9.93
2022-10-06T14:50:21.542Z,11.00
2022-10-06T14:53:10.526Z,10.52
2022-10-06T14:56:09.734Z,13.35
2022-10-06T14:59:03.463Z,9.93
2022-10-06T15:01:49.160Z,7.72
2022-10-06T15:04:33.982Z,9.13
2022-10-06T15:07:37.376Z,11.88
2022-10-06T15:10:22.416Z,11.52
2022-10-06T15:13:08.632Z,10.48
2022-10-06T15:15:57.592Z,11.25
2022-10-06T15:18:43.085Z,8.50
2022-10-06T15:21:32.800Z,8.10
2022-10-06T15:24:18.840Z,10.43
2022-10-06T15:27:25.061Z,11.73
2022-10-06T15:30:10.895Z,9.52
2022-10-06T15:32:59.311Z,12.82
2022-10-06T15:36:08.486Z,14.02
2022-10-06T15:38:54.664Z,14.40
2022-10-06T15:41:42.190Z,14.93
2022-10-06T15:44:31.178Z,15.77
2022-10-06T15:47:27.192Z,19.63
2022-10-06T15:50:16.428Z,19.60
2022-10-06T15:53:03.885Z,20.80
2022-10-06T15:55:48.588Z,22.83
2022-10-06T15:58:33.536Z,18.70
2022-10-06T16:01:27.584Z,22.13
2022-10-06T16:04:30.261Z,20.85
2022-10-06T16:07:21.663Z,19.08
2022-10-06T16:10:07.264Z,22.27
2022-10-06T16:12:58.632Z,24.95
2022-10-06T16:15:43.238Z,22.85
2022-10-06T16:18:28.592Z,28.20
2022-10-06T16:21:13.356Z,18.77
2022-10-06T16:23:58.692Z,21.80
2022-10-06T16:26:46.303Z,20.15
2022-10-06T16:29:31.517Z,20.48
2022-10-06T16:32:16.664Z,21.27
2022-10-06T16:35:01.412Z,18.13
2022-10-06T16:37:49.259Z,21.73
2022-10-06T16:40:34.057Z,21.63
2022-10-06T16:43:18.956Z,20.88
2022-10-06T16:46:06.345Z,22.25
2022-10-06T16:48:55.286Z,22.23
2022-10-06T16:51:42.795Z,19.27
2022-10-06T16:54:27.835Z,17.50
2022-10-06T16:57:13.042Z,19.90
2022-10-06T16:59:59.718Z,16.83
2022-10-06T17:02:44.852Z,16.35
2022-10-06T17:05:29.780Z,20.02
2022-10-06T17:08:14.707Z,17.75
2022-10-06T17:11:13.904Z,18.73
2022-10-06T17:13:58.917Z,19.77
2022-10-06T17:16:45.758Z,19.98
2022-10-06T17:19:31.212Z,12.73
2022-10-06T17:22:16.105Z,14.90
2022-10-06T17:25:01.040Z,13.88
2022-10-06T17:27:46.166Z,16.63
2022-10-06T17:30:31.029Z,17.52
2022-10-06T17:33:16.612Z,14.77
2022-10-06T17:36:15.788Z,13.57
2022-10-06T17:39:01.959Z,11.57
2022-10-06T17:41:48.308Z,16.63
2022-10-06T17:44:33.287Z,11.98
2022-10-06T17:47:17.983Z,15.70
2022-10-06T17:50:03.407Z,14.13
2022-10-06T17:52:48.052Z,14.23
2022-10-06T17:55:35.641Z,15.63
2022-10-06T17:58:21.505Z,13.32
2022-10-06T18:01:13.101Z,12.52
2022-10-06T18:04:03.404Z,14.68
2022-10-06T18:06:50.929Z,16.20
2022-10-06T18:09:35.860Z,12.27
2022-10-06T18:12:20.836Z,14.20
2022-10-06T18:15:11.702Z,13.48
2022-10-06T18:17:56.424Z,14.00
2022-10-06T18:20:41.843Z,11.32
2022-10-06T18:23:32.124Z,10.60
2022-10-06T18:26:20.939Z,12.50
2022-10-06T18:29:06.691Z,13.68
2022-10-06T18:32:09.369Z,13.02
2022-10-06T18:36:12.245Z,12.50
2022-10-06T18:38:05.566Z,14.55
2022-10-06T18:41:02.179Z,13.93
2022-10-06T18:46:50.695Z,13.02
2022-10-06T18:49:35.813Z,16.33
2022-10-06T18:52:22.922Z,14.07
2022-10-06T18:55:08.025Z,15.93
2022-10-06T18:57:53.623Z,16.55
2022-10-06T19:00:39.325Z,19.80
2022-10-06T19:03:26.131Z,18.42
2022-10-06T19:06:11.249Z,17.80
2022-10-06T19:09:01.356Z,17.65
2022-10-06T19:11:51.241Z,18.83
2022-10-06T19:14:42.147Z,19.48
2022-10-06T19:17:28.684Z,20.15
2022-10-06T19:20:13.766Z,20.45
2022-10-06T19:23:01.684Z,22.33
2022-10-06T19:25:49.086Z,20.48
2022-10-06T19:28:37.197Z,21.38
2022-10-06T19:31:22.105Z,19.25
2022-10-06T19:34:16.346Z,18.55
2022-10-06T19:37:00.906Z,17.88
2022-10-06T19:39:47.428Z,18.52
2022-10-06T19:42:49.540Z,19.58
2022-10-06T19:45:34.075Z,20.35
2022-10-06T19:48:22.128Z,16.55
2022-10-06T19:51:15.736Z,23.10
2022-10-06T19:54:04.342Z,17.20
2022-10-06T19:56:49.540Z,18.38
2022-10-06T19:59:36.043Z,18.75
2022-10-06T20:02:20.646Z,14.48
2022-10-06T20:05:09.395Z,17.23
2022-10-06T20:07:58.635Z,14.63
2022-10-06T20:10:43.362Z,16.10
2022-10-06T20:13:28.324Z,15.18
2022-10-06T20:16:19.232Z,16.55
2022-10-06T20:19:15.733Z,16.27
2022-10-06T20:22:00.459Z,16.60
2022-10-06T20:24:48.059Z,14.27
2022-10-06T20:27:32.742Z,15.15
2022-10-06T20:30:18.313Z,15.45
2022-10-06T20:33:03.524Z,14.85
2022-10-06T20:35:48.438Z,14.77
2022-10-06T20:38:53.343Z,13.23
2022-10-06T20:41:39.854Z,14.00
2022-10-06T20:44:37.564Z,13.38
2022-10-06T20:47:25.116Z,15.02
2022-10-06T20:50:17.173Z,12.35
2022-10-06T20:53:04.234Z,12.85
2022-10-06T20:55:52.934Z,13.32
2022-10-06T20:58:37.920Z,12.85
2022-10-06T21:01:23.232Z,13.43
2022-10-06T21:04:08.946Z,14.68
2022-10-06T21:06:54.179Z,13.55
2022-10-06T21:09:39.163Z,14.32
2022-10-06T21:12:27.857Z,13.63
2022-10-06T21:15:12.927Z,13.15
2022-10-06T21:17:57.930Z,12.20
2022-10-06T21:20:45.235Z,11.93
2022-10-06T21:23:38.793Z,13.38
2022-10-06T21:26:29.936Z,12.45
2022-10-06T21:29:15.024Z,15.32
2022-10-06T21:32:00.664Z,14.25
2022-10-06T21:34:50.592Z,12.10
2022-10-06T21:37:35.386Z,13.35
2022-10-06T21:40:20.382Z,12.95
2022-10-06T21:43:05.395Z,15.10
2022-10-06T21:46:10.945Z,14.13
2022-10-06T21:49:03.715Z,14.05
2022-10-06T21:51:51.019Z,14.98
2022-10-06T21:54:37.485Z,14.45
2022-10-06T21:57:22.230Z,14.52
2022-10-06T22:00:10.523Z,14.00
2022-10-06T22:03:21.890Z,15.40
2022-10-06T22:06:13.262Z,17.17
2022-10-06T22:09:03.111Z,17.02
2022-10-06T22:11:53.869Z,20.33
2022-10-06T22:14:38.776Z,15.25
2022-10-06T22:17:23.944Z,18.08
2022-10-06T22:20:10.428Z,17.00
2022-10-06T22:22:55.310Z,16.95
2022-10-06T22:25:40.354Z,16.38
2022-10-06T22:28:27.217Z,17.20
2022-10-06T22:31:13.356Z,15.80
2022-10-06T22:34:01.268Z,15.88
2022-10-06T22:36:47.171Z,14.52
2022-10-06T22:39:35.234Z,15.00
2022-10-06T22:42:20.070Z,14.80
2022-10-06T22:45:05.533Z,14.70
2022-10-06T22:47:50.851Z,15.30
2022-10-06T22:50:35.874Z,14.93
2022-10-06T22:53:30.649Z,13.25
2022-10-06T22:56:15.588Z,13.85
2022-10-06T22:59:03.619Z,13.70
2022-10-06T23:01:48.592Z,14.40
2022-10-06T23:04:33.557Z,13.73
2022-10-06T23:07:21.460Z,15.52
2022-10-06T23:10:09.289Z,15.00
2022-10-06T23:12:55.690Z,14.05
2022-10-06T23:15:40.947Z,15.77
2022-10-06T23:18:25.763Z,15.57
2022-10-06T23:21:20.817Z,15.13
2022-10-06T23:24:06.493Z,16.58
2022-10-06T23:26:57.374Z,15.88
2022-10-06T23:29:42.572Z,16.95
2022-10-06T23:32:27.957Z,17.38
2022-10-06T23:35:13.001Z,20.58
2022-10-06T23:37:58.933Z,18.15
2022-10-06T23:40:46.978Z,18.73
2022-10-06T23:43:32.223Z,17.73
2022-10-06T23:46:16.960Z,17.17
2022-10-06T23:49:07.830Z,18.88
2022-10-06T23:51:55.226Z,18.65
2022-10-06T23:54:40.164Z,19.17
2022-10-06T23:57:24.690Z,20.65
